sensor_id;sensor_type;location;lat;lon;timestamp;temperature;humidity
45491;DHT22;31237;45.586;13.782;2023-07-09T00:01:19;21.30;73.40
45491;DHT22;31237;45.586;13.782;2023-07-09T00:03:46;21.30;73.80
45491;DHT22;31237;45.586;13.782;2023-07-09T00:06:17;21.30;74.20
45491;DHT22;31237;45.586;13.782;2023-07-09T00:08:45;21.30;74.60
45491;DHT22;31237;45.586;13.782;2023-07-09T00:11:13;21.30;75.00
45491;DHT22;31237;45.586;13.782;2023-07-09T00:13:39;21.30;75.40
45491;DHT22;31237;45.586;13.782;2023-07-09T00:16:15;21.30;75.70
45491;DHT22;31237;45.586;13.782;2023-07-09T00:18:42;21.30;76.10
45491;DHT22;31237;45.586;13.782;2023-07-09T00:21:08;21.20;76.20
45491;DHT22;31237;45.586;13.782;2023-07-09T00:23:34;21.20;76.40
45491;DHT22;31237;45.586;13.782;2023-07-09T00:26:00;21.20;76.50
45491;DHT22;31237;45.586;13.782;2023-07-09T00:28:28;21.20;76.60
45491;DHT22;31237;45.586;13.782;2023-07-09T00:30:54;21.20;76.60
45491;DHT22;31237;45.586;13.782;2023-07-09T00:33:20;21.20;76.70
45491;DHT22;31237;45.586;13.782;2023-07-09T00:35:47;21.20;76.60
45491;DHT22;31237;45.586;13.782;2023-07-09T00:38:17;21.20;76.60
45491;DHT22;31237;45.586;13.782;2023-07-09T00:43:29;21.20;76.60
45491;DHT22;31237;45.586;13.782;2023-07-09T00:48:56;21.20;76.50
45491;DHT22;31237;45.586;13.782;2023-07-09T00:51:26;21.10;76.50
45491;DHT22;31237;45.586;13.782;2023-07-09T00:53:57;21.20;77.20
45491;DHT22;31237;45.586;13.782;2023-07-09T00:56:32;21.10;76.50
45491;DHT22;31237;45.586;13.782;2023-07-09T00:59:02;21.10;76.40
45491;DHT22;31237;45.586;13.782;2023-07-09T01:01:30;21.10;76.40
45491;DHT22;31237;45.586;13.782;2023-07-09T01:03:58;21.10;76.90
45491;DHT22;31237;45.586;13.782;2023-07-09T01:06:32;21.10;76.10
45491;DHT22;31237;45.586;13.782;2023-07-09T01:09:02;21.10;75.90
45491;DHT22;31237;45.586;13.782;2023-07-09T01:11:28;21.10;75.70
45491;DHT22;31237;45.586;13.782;2023-07-09T01:13:58;21.10;75.60
45491;DHT22;31237;45.586;13.782;2023-07-09T01:16:27;21.10;75.50
45491;DHT22;31237;45.586;13.782;2023-07-09T01:18:54;21.10;75.40
45491;DHT22;31237;45.586;13.782;2023-07-09T01:21:20;21.10;75.30
45491;DHT22;31237;45.586;13.782;2023-07-09T01:23:47;21.10;75.20
45491;DHT22;31237;45.586;13.782;2023-07-09T01:26:16;21.10;75.10
45491;DHT22;31237;45.586;13.782;2023-07-09T01:28:43;21.10;75.00
45491;DHT22;31237;45.586;13.782;2023-07-09T01:31:14;21.10;75.00
45491;DHT22;31237;45.586;13.782;2023-07-09T01:33:41;21.10;74.90
45491;DHT22;31237;45.586;13.782;2023-07-09T01:36:12;21.10;74.80
45491;DHT22;31237;45.586;13.782;2023-07-09T01:38:40;21.10;74.80
45491;DHT22;31237;45.586;13.782;2023-07-09T01:41:06;21.00;74.60
45491;DHT22;31237;45.586;13.782;2023-07-09T01:43:34;21.00;74.60
45491;DHT22;31237;45.586;13.782;2023-07-09T01:46:00;21.00;74.60
45491;DHT22;31237;45.586;13.782;2023-07-09T01:48:26;21.00;74.60
45491;DHT22;31237;45.586;13.782;2023-07-09T01:50:53;21.00;74.60
45491;DHT22;31237;45.586;13.782;2023-07-09T01:53:22;21.00;74.70
45491;DHT22;31237;45.586;13.782;2023-07-09T01:55:49;20.90;74.70
45491;DHT22;31237;45.586;13.782;2023-07-09T01:58:18;20.90;74.80
45491;DHT22;31237;45.586;13.782;2023-07-09T02:00:44;20.90;74.80
45491;DHT22;31237;45.586;13.782;2023-07-09T02:03:10;20.90;74.80
45491;DHT22;31237;45.586;13.782;2023-07-09T02:05:37;20.90;74.90
45491;DHT22;31237;45.586;13.782;2023-07-09T02:08:03;20.80;74.90
45491;DHT22;31237;45.586;13.782;2023-07-09T02:10:29;20.80;74.90
45491;DHT22;31237;45.586;13.782;2023-07-09T02:12:55;20.80;75.00
45491;DHT22;31237;45.586;13.782;2023-07-09T02:15:21;20.80;75.00
45491;DHT22;31237;45.586;13.782;2023-07-09T02:17:47;20.80;75.10
45491;DHT22;31237;45.586;13.782;2023-07-09T02:20:13;20.80;75.00
45491;DHT22;31237;45.586;13.782;2023-07-09T02:22:40;20.70;75.10
45491;DHT22;31237;45.586;13.782;2023-07-09T02:25:07;20.70;75.10
45491;DHT22;31237;45.586;13.782;2023-07-09T02:27:35;20.70;75.10
45491;DHT22;31237;45.586;13.782;2023-07-09T02:30:01;20.70;75.20
45491;DHT22;31237;45.586;13.782;2023-07-09T02:32:28;20.60;75.20
45491;DHT22;31237;45.586;13.782;2023-07-09T02:34:54;20.60;75.30
45491;DHT22;31237;45.586;13.782;2023-07-09T02:37:25;20.70;75.40
45491;DHT22;31237;45.586;13.782;2023-07-09T02:39:51;20.60;75.30
45491;DHT22;31237;45.586;13.782;2023-07-09T02:42:19;20.60;75.40
45491;DHT22;31237;45.586;13.782;2023-07-09T02:44:46;20.60;75.50
45491;DHT22;31237;45.586;13.782;2023-07-09T02:47:12;20.60;75.50
45491;DHT22;31237;45.586;13.782;2023-07-09T02:49:38;20.60;75.50
45491;DHT22;31237;45.586;13.782;2023-07-09T02:52:08;20.60;75.60
45491;DHT22;31237;45.586;13.782;2023-07-09T02:54:34;20.60;75.60
45491;DHT22;31237;45.586;13.782;2023-07-09T02:56:59;20.60;75.70
45491;DHT22;31237;45.586;13.782;2023-07-09T02:59:25;20.60;75.60
45491;DHT22;31237;45.586;13.782;2023-07-09T03:01:52;20.60;75.60
45491;DHT22;31237;45.586;13.782;2023-07-09T03:04:18;20.60;75.60
45491;DHT22;31237;45.586;13.782;2023-07-09T03:06:46;20.60;75.60
45491;DHT22;31237;45.586;13.782;2023-07-09T03:09:12;20.60;75.50
45491;DHT22;31237;45.586;13.782;2023-07-09T03:11:38;20.60;75.60
45491;DHT22;31237;45.586;13.782;2023-07-09T03:14:04;20.60;75.70
45491;DHT22;31237;45.586;13.782;2023-07-09T03:16:32;20.60;75.70
45491;DHT22;31237;45.586;13.782;2023-07-09T03:18:58;20.50;75.80
45491;DHT22;31237;45.586;13.782;2023-07-09T03:21:26;20.50;75.90
45491;DHT22;31237;45.586;13.782;2023-07-09T03:23:53;20.50;76.00
45491;DHT22;31237;45.586;13.782;2023-07-09T03:26:19;20.50;76.20
45491;DHT22;31237;45.586;13.782;2023-07-09T03:28:45;20.50;76.20
45491;DHT22;31237;45.586;13.782;2023-07-09T03:31:10;20.50;76.40
45491;DHT22;31237;45.586;13.782;2023-07-09T03:33:36;20.50;76.50
45491;DHT22;31237;45.586;13.782;2023-07-09T03:36:03;20.50;76.60
45491;DHT22;31237;45.586;13.782;2023-07-09T03:38:30;20.50;76.80
45491;DHT22;31237;45.586;13.782;2023-07-09T03:40:55;20.50;77.60
45491;DHT22;31237;45.586;13.782;2023-07-09T03:43:22;20.40;77.00
45491;DHT22;31237;45.586;13.782;2023-07-09T03:45:48;20.50;77.20
45491;DHT22;31237;45.586;13.782;2023-07-09T03:48:15;20.40;77.20
45491;DHT22;31237;45.586;13.782;2023-07-09T03:50:42;20.50;77.40
45491;DHT22;31237;45.586;13.782;2023-07-09T03:53:09;20.40;77.40
45491;DHT22;31237;45.586;13.782;2023-07-09T03:55:35;20.40;77.50
45491;DHT22;31237;45.586;13.782;2023-07-09T03:58:00;20.40;77.50
45491;DHT22;31237;45.586;13.782;2023-07-09T04:00:28;20.50;77.60
45491;DHT22;31237;45.586;13.782;2023-07-09T04:02:54;20.50;77.70
45491;DHT22;31237;45.586;13.782;2023-07-09T04:05:23;20.50;77.80
45491;DHT22;31237;45.586;13.782;2023-07-09T04:07:48;20.50;77.90
45491;DHT22;31237;45.586;13.782;2023-07-09T04:10:14;20.50;77.90
45491;DHT22;31237;45.586;13.782;2023-07-09T04:12:40;20.50;77.90
45491;DHT22;31237;45.586;13.782;2023-07-09T04:15:07;20.60;78.00
45491;DHT22;31237;45.586;13.782;2023-07-09T04:17:33;20.60;78.00
45491;DHT22;31237;45.586;13.782;2023-07-09T04:19:59;20.60;78.00
45491;DHT22;31237;45.586;13.782;2023-07-09T04:22:24;20.60;78.10
45491;DHT22;31237;45.586;13.782;2023-07-09T04:24:50;20.60;78.20
45491;DHT22;31237;45.586;13.782;2023-07-09T04:27:18;20.70;78.30
45491;DHT22;31237;45.586;13.782;2023-07-09T04:29:44;20.70;78.40
45491;DHT22;31237;45.586;13.782;2023-07-09T04:32:14;20.70;78.40
45491;DHT22;31237;45.586;13.782;2023-07-09T04:34:40;20.80;78.60
45491;DHT22;31237;45.586;13.782;2023-07-09T04:37:07;20.80;78.60
45491;DHT22;31237;45.586;13.782;2023-07-09T04:39:34;20.90;78.70
45491;DHT22;31237;45.586;13.782;2023-07-09T04:42:00;21.00;78.70
45491;DHT22;31237;45.586;13.782;2023-07-09T04:44:26;21.10;78.70
45491;DHT22;31237;45.586;13.782;2023-07-09T04:46:52;21.20;78.70
45491;DHT22;31237;45.586;13.782;2023-07-09T04:49:17;21.30;78.80
45491;DHT22;31237;45.586;13.782;2023-07-09T04:51:43;21.30;78.60
45491;DHT22;31237;45.586;13.782;2023-07-09T04:54:09;21.40;78.60
45491;DHT22;31237;45.586;13.782;2023-07-09T04:56:34;21.50;78.60
45491;DHT22;31237;45.586;13.782;2023-07-09T04:59:02;21.70;78.70
45491;DHT22;31237;45.586;13.782;2023-07-09T05:01:27;21.70;78.60
45491;DHT22;31237;45.586;13.782;2023-07-09T05:03:54;21.80;78.60
45491;DHT22;31237;45.586;13.782;2023-07-09T05:06:20;21.90;78.50
45491;DHT22;31237;45.586;13.782;2023-07-09T05:08:47;22.00;78.30
45491;DHT22;31237;45.586;13.782;2023-07-09T05:11:14;22.10;78.10
45491;DHT22;31237;45.586;13.782;2023-07-09T05:13:40;22.20;77.90
45491;DHT22;31237;45.586;13.782;2023-07-09T05:16:05;22.40;77.70
45491;DHT22;31237;45.586;13.782;2023-07-09T05:18:31;22.50;77.50
45491;DHT22;31237;45.586;13.782;2023-07-09T05:20:57;22.50;77.30
45491;DHT22;31237;45.586;13.782;2023-07-09T05:23:25;22.60;77.00
45491;DHT22;31237;45.586;13.782;2023-07-09T05:26:01;22.70;76.50
45491;DHT22;31237;45.586;13.782;2023-07-09T05:28:28;22.80;76.00
45491;DHT22;31237;45.586;13.782;2023-07-09T05:30:55;22.90;75.60
45491;DHT22;31237;45.586;13.782;2023-07-09T05:33:21;23.10;75.30
45491;DHT22;31237;45.586;13.782;2023-07-09T05:35:47;23.20;75.00
45491;DHT22;31237;45.586;13.782;2023-07-09T05:38:14;23.30;75.00
45491;DHT22;31237;45.586;13.782;2023-07-09T05:40:41;23.40;75.00
45491;DHT22;31237;45.586;13.782;2023-07-09T05:43:07;23.50;75.00
45491;DHT22;31237;45.586;13.782;2023-07-09T05:45:33;23.60;75.00
45491;DHT22;31237;45.586;13.782;2023-07-09T05:48:00;23.70;75.00
45491;DHT22;31237;45.586;13.782;2023-07-09T05:50:26;23.90;74.70
45491;DHT22;31237;45.586;13.782;2023-07-09T05:52:53;23.90;74.40
45491;DHT22;31237;45.586;13.782;2023-07-09T05:55:18;24.00;74.20
45491;DHT22;31237;45.586;13.782;2023-07-09T05:57:44;24.10;74.10
45491;DHT22;31237;45.586;13.782;2023-07-09T06:00:10;24.20;74.00
45491;DHT22;31237;45.586;13.782;2023-07-09T06:02:38;24.30;73.80
45491;DHT22;31237;45.586;13.782;2023-07-09T06:05:05;24.40;73.90
45491;DHT22;31237;45.586;13.782;2023-07-09T06:07:31;24.50;73.70
45491;DHT22;31237;45.586;13.782;2023-07-09T06:09:57;24.60;73.60
45491;DHT22;31237;45.586;13.782;2023-07-09T06:12:23;24.70;73.50
45491;DHT22;31237;45.586;13.782;2023-07-09T06:14:48;24.80;73.80
45491;DHT22;31237;45.586;13.782;2023-07-09T06:17:14;24.90;73.70
45491;DHT22;31237;45.586;13.782;2023-07-09T06:19:40;25.00;73.30
45491;DHT22;31237;45.586;13.782;2023-07-09T06:22:06;25.00;73.30
45491;DHT22;31237;45.586;13.782;2023-07-09T06:24:32;25.10;73.30
45491;DHT22;31237;45.586;13.782;2023-07-09T06:26:57;25.20;72.90
45491;DHT22;31237;45.586;13.782;2023-07-09T06:29:24;25.30;72.70
45491;DHT22;31237;45.586;13.782;2023-07-09T06:31:50;25.40;72.10
45491;DHT22;31237;45.586;13.782;2023-07-09T06:34:16;25.50;71.50
45491;DHT22;31237;45.586;13.782;2023-07-09T06:36:42;25.60;70.40
45491;DHT22;31237;45.586;13.782;2023-07-09T06:39:08;25.70;70.40
45491;DHT22;31237;45.586;13.782;2023-07-09T06:41:34;25.80;70.40
45491;DHT22;31237;45.586;13.782;2023-07-09T06:44:08;25.90;70.10
45491;DHT22;31237;45.586;13.782;2023-07-09T06:46:35;26.00;69.90
45491;DHT22;31237;45.586;13.782;2023-07-09T06:49:02;26.20;69.70
45491;DHT22;31237;45.586;13.782;2023-07-09T06:51:30;26.30;69.80
45491;DHT22;31237;45.586;13.782;2023-07-09T06:53:56;26.40;69.40
45491;DHT22;31237;45.586;13.782;2023-07-09T06:56:23;26.50;69.60
45491;DHT22;31237;45.586;13.782;2023-07-09T06:58:50;26.60;69.60
45491;DHT22;31237;45.586;13.782;2023-07-09T07:01:16;26.70;69.20
45491;DHT22;31237;45.586;13.782;2023-07-09T07:03:41;26.70;69.10
45491;DHT22;31237;45.586;13.782;2023-07-09T07:06:07;26.80;68.80
45491;DHT22;31237;45.586;13.782;2023-07-09T07:08:34;26.90;68.70
45491;DHT22;31237;45.586;13.782;2023-07-09T07:11:01;27.00;68.70
45491;DHT22;31237;45.586;13.782;2023-07-09T07:13:31;27.10;68.90
45491;DHT22;31237;45.586;13.782;2023-07-09T07:15:57;27.20;69.40
45491;DHT22;31237;45.586;13.782;2023-07-09T07:18:22;27.30;69.60
45491;DHT22;31237;45.586;13.782;2023-07-09T07:20:49;27.40;69.80
45491;DHT22;31237;45.586;13.782;2023-07-09T07:23:15;27.40;69.80
45491;DHT22;31237;45.586;13.782;2023-07-09T07:25:41;27.50;69.20
45491;DHT22;31237;45.586;13.782;2023-07-09T07:28:07;27.60;69.20
45491;DHT22;31237;45.586;13.782;2023-07-09T07:30:33;27.70;69.50
45491;DHT22;31237;45.586;13.782;2023-07-09T07:32:59;27.80;69.70
45491;DHT22;31237;45.586;13.782;2023-07-09T07:35:24;28.00;69.40
45491;DHT22;31237;45.586;13.782;2023-07-09T07:37:50;28.10;69.10
45491;DHT22;31237;45.586;13.782;2023-07-09T07:40:16;28.20;68.90
45491;DHT22;31237;45.586;13.782;2023-07-09T07:42:42;28.30;68.40
45491;DHT22;31237;45.586;13.782;2023-07-09T07:45:08;28.50;67.30
45491;DHT22;31237;45.586;13.782;2023-07-09T07:47:34;28.60;66.90
45491;DHT22;31237;45.586;13.782;2023-07-09T07:50:00;28.70;66.30
45491;DHT22;31237;45.586;13.782;2023-07-09T07:52:28;28.80;65.70
45491;DHT22;31237;45.586;13.782;2023-07-09T07:54:54;28.90;65.30
45491;DHT22;31237;45.586;13.782;2023-07-09T07:57:21;29.00;65.10
45491;DHT22;31237;45.586;13.782;2023-07-09T07:59:47;29.00;65.10
45491;DHT22;31237;45.586;13.782;2023-07-09T08:02:13;29.10;64.90
45491;DHT22;31237;45.586;13.782;2023-07-09T08:04:42;29.10;63.90
45491;DHT22;31237;45.586;13.782;2023-07-09T08:07:09;29.20;63.80
45491;DHT22;31237;45.586;13.782;2023-07-09T08:09:35;29.20;63.40
45491;DHT22;31237;45.586;13.782;2023-07-09T08:12:05;29.20;63.20
45491;DHT22;31237;45.586;13.782;2023-07-09T08:14:36;29.20;63.70
45491;DHT22;31237;45.586;13.782;2023-07-09T08:17:02;29.30;63.80
45491;DHT22;31237;45.586;13.782;2023-07-09T08:19:28;29.30;64.30
45491;DHT22;31237;45.586;13.782;2023-07-09T08:21:54;29.30;63.90
45491;DHT22;31237;45.586;13.782;2023-07-09T08:24:19;29.40;64.10
45491;DHT22;31237;45.586;13.782;2023-07-09T08:26:45;29.50;64.20
45491;DHT22;31237;45.586;13.782;2023-07-09T08:29:11;29.60;63.90
45491;DHT22;31237;45.586;13.782;2023-07-09T08:31:37;29.60;63.70
45491;DHT22;31237;45.586;13.782;2023-07-09T08:34:06;29.60;63.10
45491;DHT22;31237;45.586;13.782;2023-07-09T08:36:32;29.70;63.60
45491;DHT22;31237;45.586;13.782;2023-07-09T08:39:00;29.70;64.10
45491;DHT22;31237;45.586;13.782;2023-07-09T08:41:57;29.80;64.00
45491;DHT22;31237;45.586;13.782;2023-07-09T08:45:00;29.90;62.90
45491;DHT22;31237;45.586;13.782;2023-07-09T08:50:15;30.10;63.30
45491;DHT22;31237;45.586;13.782;2023-07-09T08:52:42;30.20;63.00
45491;DHT22;31237;45.586;13.782;2023-07-09T08:55:21;30.20;63.50
45491;DHT22;31237;45.586;13.782;2023-07-09T08:58:11;30.30;63.80
45491;DHT22;31237;45.586;13.782;2023-07-09T09:00:53;30.40;63.80
45491;DHT22;31237;45.586;13.782;2023-07-09T09:06:17;30.60;63.50
45491;DHT22;31237;45.586;13.782;2023-07-09T09:14:13;30.70;62.30
45491;DHT22;31237;45.586;13.782;2023-07-09T09:16:45;30.70;61.90
45491;DHT22;31237;45.586;13.782;2023-07-09T09:19:27;30.70;61.70
45491;DHT22;31237;45.586;13.782;2023-07-09T09:22:15;30.70;62.30
45491;DHT22;31237;45.586;13.782;2023-07-09T09:25:05;30.70;62.60
45491;DHT22;31237;45.586;13.782;2023-07-09T09:27:37;30.80;62.30
45491;DHT22;31237;45.586;13.782;2023-07-09T09:30:04;30.80;62.20
45491;DHT22;31237;45.586;13.782;2023-07-09T09:32:43;30.90;62.40
45491;DHT22;31237;45.586;13.782;2023-07-09T09:35:17;30.90;62.40
45491;DHT22;31237;45.586;13.782;2023-07-09T09:37:52;30.90;61.70
45491;DHT22;31237;45.586;13.782;2023-07-09T09:40:19;30.90;62.00
45491;DHT22;31237;45.586;13.782;2023-07-09T09:42:54;30.90;61.60
45491;DHT22;31237;45.586;13.782;2023-07-09T09:45:25;30.90;61.20
45491;DHT22;31237;45.586;13.782;2023-07-09T09:47:52;30.90;61.20
45491;DHT22;31237;45.586;13.782;2023-07-09T09:50:20;30.80;60.90
45491;DHT22;31237;45.586;13.782;2023-07-09T09:52:48;30.60;60.70
45491;DHT22;31237;45.586;13.782;2023-07-09T09:55:29;30.60;60.90
45491;DHT22;31237;45.586;13.782;2023-07-09T09:57:56;30.40;62.30
45491;DHT22;31237;45.586;13.782;2023-07-09T10:00:28;30.40;61.90
45491;DHT22;31237;45.586;13.782;2023-07-09T10:03:03;30.40;62.30
45491;DHT22;31237;45.586;13.782;2023-07-09T10:05:43;30.40;62.60
45491;DHT22;31237;45.586;13.782;2023-07-09T10:08:17;30.50;62.80
45491;DHT22;31237;45.586;13.782;2023-07-09T10:10:46;30.50;62.50
45491;DHT22;31237;45.586;13.782;2023-07-09T10:13:31;30.50;61.80
45491;DHT22;31237;45.586;13.782;2023-07-09T10:16:07;30.60;62.00
45491;DHT22;31237;45.586;13.782;2023-07-09T10:19:33;30.60;61.70
45491;DHT22;31237;45.586;13.782;2023-07-09T10:21:58;30.70;60.90
45491;DHT22;31237;45.586;13.782;2023-07-09T10:27:22;30.80;59.10
45491;DHT22;31237;45.586;13.782;2023-07-09T10:35:52;30.80;57.10
45491;DHT22;31237;45.586;13.782;2023-07-09T10:41:13;30.70;56.40
45491;DHT22;31237;45.586;13.782;2023-07-09T10:43:57;30.70;56.00
45491;DHT22;31237;45.586;13.782;2023-07-09T10:46:27;30.70;56.50
45491;DHT22;31237;45.586;13.782;2023-07-09T10:48:54;30.70;56.40
45491;DHT22;31237;45.586;13.782;2023-07-09T10:51:32;30.80;55.60
45491;DHT22;31237;45.586;13.782;2023-07-09T10:56:40;30.80;54.80
45491;DHT22;31237;45.586;13.782;2023-07-09T11:01:37;30.80;54.50
45491;DHT22;31237;45.586;13.782;2023-07-09T11:04:10;30.70;54.70
45491;DHT22;31237;45.586;13.782;2023-07-09T11:06:41;30.70;55.60
45491;DHT22;31237;45.586;13.782;2023-07-09T11:09:34;30.70;55.70
45491;DHT22;31237;45.586;13.782;2023-07-09T11:12:12;30.80;56.10
45491;DHT22;31237;45.586;13.782;2023-07-09T11:14:43;30.80;56.70
45491;DHT22;31237;45.586;13.782;2023-07-09T11:17:17;30.90;57.90
45491;DHT22;31237;45.586;13.782;2023-07-09T11:19:47;31.00;57.70
45491;DHT22;31237;45.586;13.782;2023-07-09T11:22:22;31.00;59.00
45491;DHT22;31237;45.586;13.782;2023-07-09T11:25:03;31.10;61.00
45491;DHT22;31237;45.586;13.782;2023-07-09T11:27:30;31.10;62.00
45491;DHT22;31237;45.586;13.782;2023-07-09T11:30:01;31.00;62.10
45491;DHT22;31237;45.586;13.782;2023-07-09T11:32:28;31.10;62.50
45491;DHT22;31237;45.586;13.782;2023-07-09T11:34:54;31.10;62.70
45491;DHT22;31237;45.586;13.782;2023-07-09T11:37:30;31.10;62.80
45491;DHT22;31237;45.586;13.782;2023-07-09T11:40:06;31.10;63.10
45491;DHT22;31237;45.586;13.782;2023-07-09T11:42:54;31.10;63.50
45491;DHT22;31237;45.586;13.782;2023-07-09T11:45:26;31.10;63.70
45491;DHT22;31237;45.586;13.782;2023-07-09T11:48:00;31.10;63.50
45491;DHT22;31237;45.586;13.782;2023-07-09T11:50:35;31.10;63.40
45491;DHT22;31237;45.586;13.782;2023-07-09T11:55:45;31.20;63.30
45491;DHT22;31237;45.586;13.782;2023-07-09T11:58:16;31.30;63.10
45491;DHT22;31237;45.586;13.782;2023-07-09T12:00:57;31.30;62.60
45491;DHT22;31237;45.586;13.782;2023-07-09T12:05:52;31.30;61.10
45491;DHT22;31237;45.586;13.782;2023-07-09T12:08:22;31.20;61.00
45491;DHT22;31237;45.586;13.782;2023-07-09T12:10:48;31.20;60.30
45491;DHT22;31237;45.586;13.782;2023-07-09T12:13:14;31.10;58.10
45491;DHT22;31237;45.586;13.782;2023-07-09T12:15:40;31.10;57.00
45491;DHT22;31237;45.586;13.782;2023-07-09T12:18:13;31.10;57.80
45491;DHT22;31237;45.586;13.782;2023-07-09T12:20:41;31.10;58.50
45491;DHT22;31237;45.586;13.782;2023-07-09T12:23:31;31.10;57.70
45491;DHT22;31237;45.586;13.782;2023-07-09T12:26:01;31.20;54.80
45491;DHT22;31237;45.586;13.782;2023-07-09T12:28:29;31.20;56.60
45491;DHT22;31237;45.586;13.782;2023-07-09T12:30:55;31.10;56.10
45491;DHT22;31237;45.586;13.782;2023-07-09T12:33:26;31.10;54.40
45491;DHT22;31237;45.586;13.782;2023-07-09T12:35:56;31.10;53.40
45491;DHT22;31237;45.586;13.782;2023-07-09T12:38:25;31.10;51.60
45491;DHT22;31237;45.586;13.782;2023-07-09T12:40:52;30.90;50.70
45491;DHT22;31237;45.586;13.782;2023-07-09T12:43:28;30.80;50.60
45491;DHT22;31237;45.586;13.782;2023-07-09T12:45:56;30.80;51.20
45491;DHT22;31237;45.586;13.782;2023-07-09T12:48:25;30.70;52.50
45491;DHT22;31237;45.586;13.782;2023-07-09T12:50:58;30.70;54.20
45491;DHT22;31237;45.586;13.782;2023-07-09T12:53:26;30.70;54.40
45491;DHT22;31237;45.586;13.782;2023-07-09T12:55:56;30.70;54.70
45491;DHT22;31237;45.586;13.782;2023-07-09T12:58:27;30.80;54.30
45491;DHT22;31237;45.586;13.782;2023-07-09T13:00:54;30.70;54.00
45491;DHT22;31237;45.586;13.782;2023-07-09T13:03:24;30.60;53.30
45491;DHT22;31237;45.586;13.782;2023-07-09T13:05:59;30.60;53.40
45491;DHT22;31237;45.586;13.782;2023-07-09T13:08:27;30.50;54.00
45491;DHT22;31237;45.586;13.782;2023-07-09T13:10:53;30.50;54.40
45491;DHT22;31237;45.586;13.782;2023-07-09T13:13:21;30.60;54.70
45491;DHT22;31237;45.586;13.782;2023-07-09T13:16:01;30.60;54.40
45491;DHT22;31237;45.586;13.782;2023-07-09T13:18:27;30.70;54.60
45491;DHT22;31237;45.586;13.782;2023-07-09T13:20:55;30.70;54.20
45491;DHT22;31237;45.586;13.782;2023-07-09T13:23:27;30.60;53.80
45491;DHT22;31237;45.586;13.782;2023-07-09T13:25:54;30.60;54.00
45491;DHT22;31237;45.586;13.782;2023-07-09T13:28:24;30.60;53.00
45491;DHT22;31237;45.586;13.782;2023-07-09T13:31:08;30.50;53.00
45491;DHT22;31237;45.586;13.782;2023-07-09T13:33:34;30.50;52.50
45491;DHT22;31237;45.586;13.782;2023-07-09T13:36:00;30.40;52.50
45491;DHT22;31237;45.586;13.782;2023-07-09T13:38:26;30.50;52.70
45491;DHT22;31237;45.586;13.782;2023-07-09T13:40:55;30.50;52.00
45491;DHT22;31237;45.586;13.782;2023-07-09T13:43:30;30.50;52.30
45491;DHT22;31237;45.586;13.782;2023-07-09T13:45:56;30.40;52.00
45491;DHT22;31237;45.586;13.782;2023-07-09T13:48:23;30.40;51.70
45491;DHT22;31237;45.586;13.782;2023-07-09T13:50:51;30.40;52.20
45491;DHT22;31237;45.586;13.782;2023-07-09T13:53:21;30.40;54.20
45491;DHT22;31237;45.586;13.782;2023-07-09T13:55:48;30.40;54.70
45491;DHT22;31237;45.586;13.782;2023-07-09T13:58:17;30.30;55.20
45491;DHT22;31237;45.586;13.782;2023-07-09T14:00:45;30.40;55.60
45491;DHT22;31237;45.586;13.782;2023-07-09T14:03:19;30.40;56.10
45491;DHT22;31237;45.586;13.782;2023-07-09T14:05:46;30.40;56.50
45491;DHT22;31237;45.586;13.782;2023-07-09T14:08:12;30.40;57.10
45491;DHT22;31237;45.586;13.782;2023-07-09T14:10:38;30.40;57.90
45491;DHT22;31237;45.586;13.782;2023-07-09T14:13:04;30.40;58.90
45491;DHT22;31237;45.586;13.782;2023-07-09T14:15:30;30.30;59.00
45491;DHT22;31237;45.586;13.782;2023-07-09T14:17:56;30.30;59.10
45491;DHT22;31237;45.586;13.782;2023-07-09T14:20:22;30.30;58.90
45491;DHT22;31237;45.586;13.782;2023-07-09T14:22:50;30.20;58.60
45491;DHT22;31237;45.586;13.782;2023-07-09T14:25:22;30.20;58.50
45491;DHT22;31237;45.586;13.782;2023-07-09T14:27:49;30.20;58.60
45491;DHT22;31237;45.586;13.782;2023-07-09T14:30:21;30.20;58.70
45491;DHT22;31237;45.586;13.782;2023-07-09T14:32:49;30.10;58.60
45491;DHT22;31237;45.586;13.782;2023-07-09T14:35:18;30.10;59.00
45491;DHT22;31237;45.586;13.782;2023-07-09T14:37:46;30.10;59.60
45491;DHT22;31237;45.586;13.782;2023-07-09T14:40:13;30.00;60.30
45491;DHT22;31237;45.586;13.782;2023-07-09T14:42:41;30.10;58.90
45491;DHT22;31237;45.586;13.782;2023-07-09T14:47:42;30.10;58.20
45491;DHT22;31237;45.586;13.782;2023-07-09T14:50:08;30.10;57.10
45491;DHT22;31237;45.586;13.782;2023-07-09T14:52:35;30.10;57.30
45491;DHT22;31237;45.586;13.782;2023-07-09T14:55:01;30.00;57.10
45491;DHT22;31237;45.586;13.782;2023-07-09T14:57:27;30.00;57.40
45491;DHT22;31237;45.586;13.782;2023-07-09T14:59:56;30.00;57.00
45491;DHT22;31237;45.586;13.782;2023-07-09T15:02:37;30.00;57.00
45491;DHT22;31237;45.586;13.782;2023-07-09T15:05:05;30.00;56.50
45491;DHT22;31237;45.586;13.782;2023-07-09T15:07:33;30.00;57.90
45491;DHT22;31237;45.586;13.782;2023-07-09T15:10:02;30.00;59.50
45491;DHT22;31237;45.586;13.782;2023-07-09T15:12:33;30.10;60.40
45491;DHT22;31237;45.586;13.782;2023-07-09T15:15:23;30.00;61.10
45491;DHT22;31237;45.586;13.782;2023-07-09T15:17:49;30.00;61.60
45491;DHT22;31237;45.586;13.782;2023-07-09T15:20:22;30.00;61.50
45491;DHT22;31237;45.586;13.782;2023-07-09T15:22:48;30.00;61.40
45491;DHT22;31237;45.586;13.782;2023-07-09T15:25:18;29.90;61.80
45491;DHT22;31237;45.586;13.782;2023-07-09T15:27:45;30.00;62.40
45491;DHT22;31237;45.586;13.782;2023-07-09T15:30:20;29.90;62.60
45491;DHT22;31237;45.586;13.782;2023-07-09T15:32:47;29.90;62.60
45491;DHT22;31237;45.586;13.782;2023-07-09T15:35:14;30.00;63.10
45491;DHT22;31237;45.586;13.782;2023-07-09T15:37:41;29.90;63.30
45491;DHT22;31237;45.586;13.782;2023-07-09T15:40:19;30.00;63.50
45491;DHT22;31237;45.586;13.782;2023-07-09T15:42:46;30.00;63.20
45491;DHT22;31237;45.586;13.782;2023-07-09T15:45:14;29.90;63.30
45491;DHT22;31237;45.586;13.782;2023-07-09T15:47:40;29.90;63.50
45491;DHT22;31237;45.586;13.782;2023-07-09T15:50:16;29.90;63.30
45491;DHT22;31237;45.586;13.782;2023-07-09T15:52:44;29.90;63.30
45491;DHT22;31237;45.586;13.782;2023-07-09T15:55:18;30.00;63.00
45491;DHT22;31237;45.586;13.782;2023-07-09T15:57:49;30.00;62.30
45491;DHT22;31237;45.586;13.782;2023-07-09T16:00:28;30.00;62.10
45491;DHT22;31237;45.586;13.782;2023-07-09T16:02:56;30.10;62.00
45491;DHT22;31237;45.586;13.782;2023-07-09T16:05:30;30.00;62.30
45491;DHT22;31237;45.586;13.782;2023-07-09T16:07:58;30.00;62.50